N208PE MDJB-TJSJ
Flight info
| Callsign | N208PE |
|---|---|
| Flight time | N/A |
| Altitude | 10000 |
| Route | BRURY DCT CDO W41 MELLA DCT MAZ DCT DDP |
| Aircraft | C208/L-SDFGR/C |
Departure
| Time | 2026-04-26 03:27 |
|---|---|
| Airport | La Isabela International Airport (MDJB) |
Arrival
| Time | N/A |
|---|---|
| Airport | Luis Munoz Marin International Airport (TJSJ) |
| Time | Latitude | Longitude | Altitude | Speed | Heading |
|---|---|---|---|---|---|
| 2026-04-26 03:05 | 18.57593 | -69.98330 | 84 ft | 0 kts | 96° |
| 2026-04-26 03:13 | 18.57592 | -69.98329 | 84 ft | 0 kts | 96° |
| 2026-04-26 03:14 | 18.57591 | -69.98314 | 84 ft | 9 kts | 96° |
| 2026-04-26 03:14 | 18.57588 | -69.98284 | 84 ft | 19 kts | 96° |
| 2026-04-26 03:14 | 18.57598 | -69.98379 | 84 ft | 0 kts | 96° |
| 2026-04-26 03:14 | 18.57593 | -69.98337 | 84 ft | 0 kts | 96° |
| 2026-04-26 03:16 | 18.57593 | -69.98336 | 84 ft | 0 kts | 96° |
| 2026-04-26 03:17 | 18.57593 | -69.98335 | 84 ft | 0 kts | 96° |
| 2026-04-26 03:19 | 18.57593 | -69.98334 | 84 ft | 0 kts | 96° |
| 2026-04-26 03:20 | 18.57593 | -69.98332 | 84 ft | 3 kts | 96° |
| 2026-04-26 03:20 | 18.57570 | -69.98302 | 84 ft | 7 kts | 185° |
| 2026-04-26 03:21 | 18.57516 | -69.98331 | 84 ft | 18 kts | 217° |
| 2026-04-26 03:21 | 18.57454 | -69.98383 | 84 ft | 0 kts | 218° |
| 2026-04-26 03:21 | 18.57418 | -69.98412 | 84 ft | 15 kts | 217° |
| 2026-04-26 03:21 | 18.57344 | -69.98471 | 84 ft | 7 kts | 217° |
| 2026-04-26 03:22 | 18.57341 | -69.98473 | 84 ft | 0 kts | 217° |
| 2026-04-26 03:23 | 18.57323 | -69.98488 | 84 ft | 11 kts | 217° |
| 2026-04-26 03:23 | 18.57215 | -69.98565 | 84 ft | 21 kts | 195° |
| 2026-04-26 03:23 | 18.57037 | -69.98588 | 84 ft | 30 kts | 186° |
| 2026-04-26 03:23 | 18.56887 | -69.98605 | 84 ft | 10 kts | 186° |
| 2026-04-26 03:24 | 18.56775 | -69.98618 | 84 ft | 24 kts | 186° |
| 2026-04-26 03:24 | 18.56614 | -69.98637 | 84 ft | 18 kts | 183° |
| 2026-04-26 03:24 | 18.56523 | -69.98612 | 84 ft | 14 kts | 186° |
| 2026-04-26 03:24 | 18.56494 | -69.98658 | 84 ft | 4 kts | 329° |
| 2026-04-26 03:25 | 18.56549 | -69.98646 | 84 ft | 5 kts | 8° |
| 2026-04-26 03:25 | 18.56559 | -69.98644 | 84 ft | 0 kts | 8° |
| 2026-04-26 03:26 | 18.56560 | -69.98644 | 84 ft | 2 kts | 8° |
| 2026-04-26 03:26 | 18.56736 | -69.98620 | 84 ft | 61 kts | 6° |
| 2026-04-26 03:26 | 18.57359 | -69.98550 | 89 ft | 112 kts | 6° |
| 2026-04-26 03:27 | 18.58186 | -69.98457 | 228 ft | 128 kts | 6° |
| 2026-04-26 03:27 | 18.59106 | -69.98357 | 427 ft | 133 kts | 6° |
| 2026-04-26 03:27 | 18.60010 | -69.98288 | 788 ft | 124 kts | 358° |
| 2026-04-26 03:27 | 18.60771 | -69.98620 | 1103 ft | 124 kts | 315° |
| 2026-04-26 03:28 | 18.61088 | -69.99448 | 1344 ft | 131 kts | 272° |
| 2026-04-26 03:28 | 18.60803 | -70.00353 | 1624 ft | 131 kts | 231° |
| 2026-04-26 03:28 | 18.60070 | -70.00903 | 1878 ft | 129 kts | 196° |
| 2026-04-26 03:28 | 18.59162 | -70.01071 | 1977 ft | 137 kts | 184° |
| 2026-04-26 03:29 | 18.58213 | -70.01161 | 2154 ft | 135 kts | 187° |
| 2026-04-26 03:29 | 18.57309 | -70.01263 | 2445 ft | 129 kts | 187° |
| 2026-04-26 03:29 | 18.56416 | -70.01342 | 2686 ft | 129 kts | 186° |
| 2026-04-26 03:29 | 18.55516 | -70.01399 | 2921 ft | 131 kts | 185° |
| 2026-04-26 03:30 | 18.54590 | -70.01435 | 3131 ft | 134 kts | 184° |
| 2026-04-26 03:30 | 18.53651 | -70.01479 | 3337 ft | 135 kts | 186° |
| 2026-04-26 03:30 | 18.52714 | -70.01543 | 3582 ft | 135 kts | 186° |
| 2026-04-26 03:30 | 18.51787 | -70.01606 | 3825 ft | 136 kts | 186° |
| 2026-04-26 03:31 | 18.50843 | -70.01671 | 4074 ft | 136 kts | 186° |
| 2026-04-26 03:31 | 18.49890 | -70.01738 | 4323 ft | 137 kts | 186° |
| 2026-04-26 03:31 | 18.48928 | -70.01809 | 4574 ft | 138 kts | 186° |
| 2026-04-26 03:31 | 18.47967 | -70.01884 | 4824 ft | 139 kts | 186° |
| 2026-04-26 03:32 | 18.47012 | -70.01963 | 5071 ft | 140 kts | 186° |
| 2026-04-26 03:32 | 18.46042 | -70.02049 | 5321 ft | 140 kts | 186° |
| 2026-04-26 03:32 | 18.45077 | -70.02136 | 5568 ft | 141 kts | 186° |
| 2026-04-26 03:32 | 18.44087 | -70.02227 | 5822 ft | 141 kts | 186° |
| 2026-04-26 03:33 | 18.43108 | -70.02317 | 6071 ft | 141 kts | 186° |
| 2026-04-26 03:33 | 18.42140 | -70.02287 | 6303 ft | 143 kts | 161° |
| 2026-04-26 03:33 | 18.41459 | -70.01581 | 6548 ft | 140 kts | 109° |
| 2026-04-26 03:33 | 18.41323 | -70.00581 | 6822 ft | 138 kts | 91° |
| 2026-04-26 03:34 | 18.41294 | -69.99572 | 7075 ft | 139 kts | 89° |
| 2026-04-26 03:34 | 18.41272 | -69.98552 | 7327 ft | 139 kts | 89° |
| 2026-04-26 03:34 | 18.41250 | -69.97532 | 7578 ft | 139 kts | 89° |
| 2026-04-26 03:34 | 18.41226 | -69.96515 | 7828 ft | 139 kts | 89° |
| 2026-04-26 03:35 | 18.41200 | -69.95497 | 8078 ft | 139 kts | 89° |
| 2026-04-26 03:35 | 18.41174 | -69.94481 | 8328 ft | 139 kts | 89° |
| 2026-04-26 03:35 | 18.41146 | -69.93473 | 8576 ft | 139 kts | 89° |
| 2026-04-26 03:35 | 18.41117 | -69.92458 | 8825 ft | 138 kts | 89° |
| 2026-04-26 03:36 | 18.41087 | -69.91447 | 9074 ft | 138 kts | 89° |
| 2026-04-26 03:36 | 18.41056 | -69.90439 | 9323 ft | 137 kts | 89° |
| 2026-04-26 03:36 | 18.41025 | -69.89436 | 9572 ft | 137 kts | 89° |
| 2026-04-26 03:36 | 18.40993 | -69.88434 | 9806 ft | 137 kts | 89° |
| 2026-04-26 03:37 | 18.40961 | -69.87409 | 9950 ft | 143 kts | 89° |
| 2026-04-26 03:37 | 18.40930 | -69.86333 | 10006 ft | 152 kts | 89° |
| 2026-04-26 03:37 | 18.40900 | -69.85184 | 10012 ft | 161 kts | 89° |
| 2026-04-26 03:37 | 18.40872 | -69.83993 | 10010 ft | 167 kts | 89° |
| 2026-04-26 03:38 | 18.40844 | -69.82752 | 10006 ft | 171 kts | 89° |
| 2026-04-26 03:38 | 18.40816 | -69.81496 | 10003 ft | 173 kts | 89° |
| 2026-04-26 03:38 | 18.40789 | -69.80219 | 10001 ft | 174 kts | 89° |
| 2026-04-26 03:38 | 18.40762 | -69.78961 | 10001 ft | 174 kts | 89° |
| 2026-04-26 03:39 | 18.40734 | -69.77664 | 10000 ft | 175 kts | 89° |
| 2026-04-26 03:39 | 18.40707 | -69.76380 | 10000 ft | 175 kts | 89° |
| 2026-04-26 03:39 | 18.40681 | -69.75102 | 10000 ft | 175 kts | 89° |
| 2026-04-26 03:39 | 18.40654 | -69.73821 | 10000 ft | 175 kts | 89° |
| 2026-04-26 03:40 | 18.40628 | -69.72566 | 9999 ft | 173 kts | 89° |
| 2026-04-26 03:40 | 18.40601 | -69.71299 | 9998 ft | 172 kts | 89° |
| 2026-04-26 03:40 | 18.40575 | -69.70038 | 9999 ft | 171 kts | 89° |
| 2026-04-26 03:40 | 18.40548 | -69.68783 | 9999 ft | 171 kts | 89° |
| 2026-04-26 03:41 | 18.40522 | -69.67532 | 10000 ft | 171 kts | 89° |
| 2026-04-26 03:41 | 18.40495 | -69.66279 | 10000 ft | 171 kts | 89° |
| 2026-04-26 03:41 | 18.40469 | -69.65031 | 10000 ft | 171 kts | 89° |
| 2026-04-26 03:41 | 18.40443 | -69.63781 | 10000 ft | 171 kts | 89° |
| 2026-04-26 03:42 | 18.40417 | -69.62527 | 10000 ft | 171 kts | 89° |
| 2026-04-26 03:42 | 18.40391 | -69.61276 | 10000 ft | 171 kts | 89° |
| 2026-04-26 03:42 | 18.40365 | -69.60039 | 10000 ft | 171 kts | 89° |
| 2026-04-26 03:42 | 18.40340 | -69.58791 | 10000 ft | 171 kts | 89° |
| 2026-04-26 03:43 | 18.40314 | -69.57540 | 10000 ft | 171 kts | 89° |
| 2026-04-26 03:43 | 18.40289 | -69.56290 | 10000 ft | 171 kts | 89° |
| 2026-04-26 03:43 | 18.40264 | -69.55040 | 10000 ft | 171 kts | 89° |
| 2026-04-26 03:43 | 18.40239 | -69.53791 | 10000 ft | 171 kts | 89° |
| 2026-04-26 03:44 | 18.40213 | -69.52540 | 10000 ft | 171 kts | 89° |
| 2026-04-26 03:44 | 18.40189 | -69.51290 | 10000 ft | 171 kts | 89° |
| 2026-04-26 03:44 | 18.40164 | -69.50039 | 10000 ft | 171 kts | 89° |
| 2026-04-26 03:44 | 18.40139 | -69.48789 | 10000 ft | 171 kts | 89° |
| 2026-04-26 03:45 | 18.40114 | -69.47536 | 10000 ft | 171 kts | 89° |
| 2026-04-26 03:45 | 18.40090 | -69.46284 | 10000 ft | 171 kts | 89° |
| 2026-04-26 03:45 | 18.39972 | -69.45055 | 10001 ft | 172 kts | 96° |
| 2026-04-26 03:45 | 18.39773 | -69.43810 | 10000 ft | 172 kts | 97° |
| 2026-04-26 03:46 | 18.39562 | -69.42572 | 10000 ft | 172 kts | 98° |
| 2026-04-26 03:46 | 18.39349 | -69.41335 | 10000 ft | 172 kts | 98° |
| 2026-04-26 03:46 | 18.39135 | -69.40092 | 10000 ft | 172 kts | 98° |
| 2026-04-26 03:47 | 18.38709 | -69.37615 | 10000 ft | 172 kts | 98° |
| 2026-04-26 03:47 | 18.38496 | -69.36374 | 10000 ft | 172 kts | 98° |
| 2026-04-26 03:47 | 18.38286 | -69.35151 | 10000 ft | 172 kts | 98° |
| 2026-04-26 03:47 | 18.38074 | -69.33915 | 10000 ft | 172 kts | 98° |
| 2026-04-26 03:48 | 18.37862 | -69.32676 | 10000 ft | 172 kts | 98° |
| 2026-04-26 03:48 | 18.37649 | -69.31436 | 10000 ft | 172 kts | 98° |
| 2026-04-26 03:48 | 18.37441 | -69.30192 | 10000 ft | 172 kts | 96° |
| 2026-04-26 03:48 | 18.37276 | -69.28950 | 10000 ft | 172 kts | 95° |
| 2026-04-26 03:49 | 18.37124 | -69.27700 | 10000 ft | 172 kts | 95° |
| 2026-04-26 03:49 | 18.36975 | -69.26454 | 10000 ft | 172 kts | 95° |
| 2026-04-26 03:49 | 18.36828 | -69.25221 | 10000 ft | 172 kts | 95° |
| 2026-04-26 03:49 | 18.36679 | -69.23974 | 10000 ft | 172 kts | 95° |
| 2026-04-26 03:50 | 18.36530 | -69.22727 | 10000 ft | 172 kts | 95° |
| 2026-04-26 03:50 | 18.36381 | -69.21481 | 10000 ft | 172 kts | 95° |
| 2026-04-26 03:50 | 18.36233 | -69.20233 | 10000 ft | 172 kts | 95° |
| 2026-04-26 03:50 | 18.36085 | -69.18987 | 10000 ft | 172 kts | 95° |
| 2026-04-26 03:51 | 18.35936 | -69.17736 | 10000 ft | 172 kts | 95° |
| 2026-04-26 03:51 | 18.35788 | -69.16493 | 10000 ft | 172 kts | 95° |
| 2026-04-26 03:51 | 18.35642 | -69.15262 | 10000 ft | 172 kts | 95° |
| 2026-04-26 03:51 | 18.35494 | -69.14013 | 10000 ft | 172 kts | 95° |
| 2026-04-26 03:52 | 18.35347 | -69.12768 | 10000 ft | 172 kts | 95° |
| 2026-04-26 03:52 | 18.35199 | -69.11520 | 10000 ft | 172 kts | 95° |
| 2026-04-26 03:52 | 18.35051 | -69.10272 | 10000 ft | 172 kts | 95° |
| 2026-04-26 03:52 | 18.34904 | -69.09025 | 10000 ft | 172 kts | 95° |
| 2026-04-26 03:53 | 18.34757 | -69.07779 | 10000 ft | 172 kts | 95° |
| 2026-04-26 03:53 | 18.34609 | -69.06532 | 10000 ft | 172 kts | 95° |
| 2026-04-26 03:53 | 18.34462 | -69.05282 | 10000 ft | 172 kts | 95° |
| 2026-04-26 03:53 | 18.34315 | -69.04037 | 10000 ft | 172 kts | 95° |
| 2026-04-26 03:54 | 18.34170 | -69.02804 | 10000 ft | 172 kts | 95° |
| 2026-04-26 03:54 | 18.34023 | -69.01557 | 10000 ft | 172 kts | 95° |
| 2026-04-26 03:54 | 18.33877 | -69.00313 | 10000 ft | 172 kts | 95° |
| 2026-04-26 03:54 | 18.33730 | -68.99064 | 10000 ft | 172 kts | 95° |
| 2026-04-26 03:55 | 18.33584 | -68.97818 | 10000 ft | 172 kts | 95° |
| 2026-04-26 03:55 | 18.33438 | -68.96569 | 10000 ft | 172 kts | 95° |
| 2026-04-26 03:55 | 18.33292 | -68.95321 | 10000 ft | 172 kts | 95° |
| 2026-04-26 03:55 | 18.33145 | -68.94073 | 10000 ft | 172 kts | 95° |
| 2026-04-26 03:56 | 18.33000 | -68.92828 | 10000 ft | 172 kts | 95° |
| 2026-04-26 03:56 | 18.32854 | -68.91581 | 10000 ft | 172 kts | 95° |
| 2026-04-26 03:56 | 18.32708 | -68.90331 | 10000 ft | 172 kts | 95° |
| 2026-04-26 03:56 | 18.32562 | -68.89084 | 10000 ft | 172 kts | 95° |
| 2026-04-26 03:57 | 18.32417 | -68.87838 | 10000 ft | 172 kts | 94° |
| 2026-04-26 03:57 | 18.32272 | -68.86591 | 10000 ft | 172 kts | 94° |
| 2026-04-26 03:57 | 18.32128 | -68.85360 | 10000 ft | 172 kts | 94° |
| 2026-04-26 03:57 | 18.31983 | -68.84110 | 10000 ft | 172 kts | 94° |
| 2026-04-26 03:58 | 18.31838 | -68.82861 | 10000 ft | 172 kts | 94° |
| 2026-04-26 03:58 | 18.31693 | -68.81614 | 10000 ft | 172 kts | 94° |
| 2026-04-26 03:58 | 18.31548 | -68.80368 | 10000 ft | 172 kts | 94° |
| 2026-04-26 03:58 | 18.31404 | -68.79122 | 10000 ft | 172 kts | 94° |
| 2026-04-26 03:59 | 18.31259 | -68.77874 | 10000 ft | 172 kts | 94° |
| 2026-04-26 03:59 | 18.31115 | -68.76626 | 10000 ft | 172 kts | 94° |
| 2026-04-26 03:59 | 18.30970 | -68.75378 | 10000 ft | 172 kts | 94° |
| 2026-04-26 03:59 | 18.30828 | -68.74151 | 10000 ft | 172 kts | 94° |
| 2026-04-26 04:00 | 18.30684 | -68.72901 | 10000 ft | 172 kts | 94° |
| 2026-04-26 04:00 | 18.30540 | -68.71654 | 10000 ft | 172 kts | 94° |
| 2026-04-26 04:00 | 18.30396 | -68.70406 | 10000 ft | 172 kts | 94° |
| 2026-04-26 04:00 | 18.30252 | -68.69159 | 10000 ft | 172 kts | 94° |
| 2026-04-26 04:01 | 18.30109 | -68.67911 | 10000 ft | 172 kts | 94° |
| 2026-04-26 04:01 | 18.29965 | -68.66661 | 10000 ft | 172 kts | 94° |
| 2026-04-26 04:01 | 18.29821 | -68.65414 | 10000 ft | 172 kts | 94° |
| 2026-04-26 04:01 | 18.29678 | -68.64164 | 10000 ft | 172 kts | 94° |
| 2026-04-26 04:02 | 18.29534 | -68.62916 | 10000 ft | 172 kts | 94° |
| 2026-04-26 04:02 | 18.29391 | -68.61668 | 10000 ft | 172 kts | 94° |
| 2026-04-26 04:02 | 18.29248 | -68.60418 | 10000 ft | 172 kts | 94° |
| 2026-04-26 04:02 | 18.29106 | -68.59173 | 10000 ft | 172 kts | 94° |
| 2026-04-26 04:03 | 18.28963 | -68.57924 | 10000 ft | 172 kts | 94° |
| 2026-04-26 04:03 | 18.28820 | -68.56677 | 10000 ft | 172 kts | 94° |
| 2026-04-26 04:03 | 18.28677 | -68.55429 | 10000 ft | 172 kts | 94° |
| 2026-04-26 04:03 | 18.28535 | -68.54181 | 10000 ft | 172 kts | 94° |
| 2026-04-26 04:04 | 18.28394 | -68.52948 | 10000 ft | 172 kts | 94° |
| 2026-04-26 04:04 | 18.28251 | -68.51695 | 10000 ft | 172 kts | 94° |
| 2026-04-26 04:04 | 18.28110 | -68.50449 | 10000 ft | 172 kts | 94° |
| 2026-04-26 04:04 | 18.27967 | -68.49200 | 10000 ft | 172 kts | 94° |
| 2026-04-26 04:05 | 18.27825 | -68.47950 | 10000 ft | 172 kts | 94° |
| 2026-04-26 04:05 | 18.27683 | -68.46702 | 10000 ft | 172 kts | 94° |
| 2026-04-26 04:05 | 18.27590 | -68.45875 | 10000 ft | 172 kts | 94° |
| 2026-04-26 04:05 | 18.27448 | -68.44627 | 10000 ft | 172 kts | 94° |
| 2026-04-26 04:06 | 18.27326 | -68.43552 | 10000 ft | 172 kts | 94° |